Greenland, Michigan
Current Conditions -  °F | °C
As of 11:05 AM on Monday 22 Dec 2014 (Local Time) from KCMX Reporting Station
Haze Haze  
Wind Chill: 25°   Ceiling: 1100
Heat Index: 33°   Visibility: 3mi
Dew Point: 31°   Wind: 10mph
Humidity: 92%   Direction: 130°SE
Pressure: 29.83"   Gusts: NA
Location:  46.78°N, 89.1°W
Report Text: KCMX 221605Z AUTO 13009KT 3SM BR BKN011 OVC050 01/M01 A2983 RMK AO2 T00061006
Loading
Personal Weather Stations






























Interactive Weather Map New forecast layout! Learn more

10-Day Weather Forecast

Advertisements
Track Severe Weather on mobile